sensor_id;sensor_type;location;lat;lon;timestamp;P1;durP1;ratioP1;P2;durP2;ratioP2
25913;SDS011;13718;50.922;5.346;2023-07-31T00:00:37;26.55;;;6.45;;
25913;SDS011;13718;50.922;5.346;2023-07-31T00:03:03;22.40;;;6.05;;
25913;SDS011;13718;50.922;5.346;2023-07-31T00:05:29;21.45;;;6.80;;
25913;SDS011;13718;50.922;5.346;2023-07-31T00:07:54;24.45;;;6.10;;
25913;SDS011;13718;50.922;5.346;2023-07-31T00:10:20;26.95;;;6.55;;
25913;SDS011;13718;50.922;5.346;2023-07-31T00:12:46;28.88;;;6.70;;
25913;SDS011;13718;50.922;5.346;2023-07-31T00:15:12;24.60;;;6.43;;
25913;SDS011;13718;50.922;5.346;2023-07-31T00:17:39;21.00;;;5.82;;
25913;SDS011;13718;50.922;5.346;2023-07-31T00:20:04;24.73;;;6.57;;
25913;SDS011;13718;50.922;5.346;2023-07-31T00:22:30;30.08;;;6.55;;
25913;SDS011;13718;50.922;5.346;2023-07-31T00:24:56;25.83;;;6.55;;
25913;SDS011;13718;50.922;5.346;2023-07-31T00:27:22;26.90;;;6.32;;
25913;SDS011;13718;50.922;5.346;2023-07-31T00:29:48;24.30;;;6.93;;
25913;SDS011;13718;50.922;5.346;2023-07-31T00:32:13;23.13;;;5.95;;
25913;SDS011;13718;50.922;5.346;2023-07-31T00:34:39;20.80;;;6.55;;
25913;SDS011;13718;50.922;5.346;2023-07-31T00:37:04;23.23;;;6.70;;
25913;SDS011;13718;50.922;5.346;2023-07-31T00:39:30;26.20;;;6.93;;
25913;SDS011;13718;50.922;5.346;2023-07-31T00:41:56;26.55;;;6.65;;
25913;SDS011;13718;50.922;5.346;2023-07-31T00:44:21;23.27;;;6.15;;
25913;SDS011;13718;50.922;5.346;2023-07-31T00:46:47;27.90;;;6.80;;
25913;SDS011;13718;50.922;5.346;2023-07-31T00:49:13;20.58;;;6.30;;
25913;SDS011;13718;50.922;5.346;2023-07-31T00:51:39;24.23;;;6.45;;
25913;SDS011;13718;50.922;5.346;2023-07-31T00:54:05;30.20;;;6.95;;
25913;SDS011;13718;50.922;5.346;2023-07-31T00:56:31;31.00;;;6.55;;
25913;SDS011;13718;50.922;5.346;2023-07-31T00:58:57;27.15;;;7.65;;
25913;SDS011;13718;50.922;5.346;2023-07-31T01:01:23;21.27;;;6.65;;
25913;SDS011;13718;50.922;5.346;2023-07-31T01:03:49;20.65;;;6.15;;
25913;SDS011;13718;50.922;5.346;2023-07-31T01:09:25;21.20;;;6.60;;
25913;SDS011;13718;50.922;5.346;2023-07-31T01:11:56;22.85;;;6.88;;
25913;SDS011;13718;50.922;5.346;2023-07-31T01:14:22;20.90;;;7.03;;
25913;SDS011;13718;50.922;5.346;2023-07-31T01:16:47;24.83;;;7.25;;
25913;SDS011;13718;50.922;5.346;2023-07-31T01:19:14;23.85;;;6.90;;
25913;SDS011;13718;50.922;5.346;2023-07-31T01:26:49;21.00;;;6.63;;
25913;SDS011;13718;50.922;5.346;2023-07-31T01:29:38;25.83;;;7.13;;
25913;SDS011;13718;50.922;5.346;2023-07-31T01:32:12;23.45;;;6.55;;
25913;SDS011;13718;50.922;5.346;2023-07-31T01:34:39;21.38;;;6.25;;
25913;SDS011;13718;50.922;5.346;2023-07-31T01:37:06;18.98;;;6.55;;
25913;SDS011;13718;50.922;5.346;2023-07-31T01:39:32;23.67;;;7.38;;
25913;SDS011;13718;50.922;5.346;2023-07-31T01:41:57;19.50;;;6.50;;
25913;SDS011;13718;50.922;5.346;2023-07-31T01:44:23;23.30;;;6.90;;
25913;SDS011;13718;50.922;5.346;2023-07-31T01:46:48;24.17;;;6.82;;
25913;SDS011;13718;50.922;5.346;2023-07-31T01:49:14;20.90;;;6.68;;
25913;SDS011;13718;50.922;5.346;2023-07-31T01:51:40;21.08;;;6.32;;
25913;SDS011;13718;50.922;5.346;2023-07-31T01:54:05;22.65;;;6.40;;
25913;SDS011;13718;50.922;5.346;2023-07-31T01:56:31;18.08;;;6.75;;
25913;SDS011;13718;50.922;5.346;2023-07-31T01:58:56;20.88;;;6.22;;
25913;SDS011;13718;50.922;5.346;2023-07-31T02:01:22;21.75;;;7.25;;
25913;SDS011;13718;50.922;5.346;2023-07-31T02:03:48;22.30;;;7.00;;
25913;SDS011;13718;50.922;5.346;2023-07-31T02:06:14;20.95;;;6.88;;
25913;SDS011;13718;50.922;5.346;2023-07-31T02:08:39;26.25;;;7.10;;
25913;SDS011;13718;50.922;5.346;2023-07-31T02:11:05;20.23;;;6.90;;
25913;SDS011;13718;50.922;5.346;2023-07-31T02:13:30;15.52;;;6.75;;
25913;SDS011;13718;50.922;5.346;2023-07-31T02:15:56;23.33;;;7.05;;
25913;SDS011;13718;50.922;5.346;2023-07-31T02:18:22;26.70;;;7.55;;
25913;SDS011;13718;50.922;5.346;2023-07-31T02:20:51;23.52;;;7.38;;
25913;SDS011;13718;50.922;5.346;2023-07-31T02:23:19;17.98;;;7.18;;
25913;SDS011;13718;50.922;5.346;2023-07-31T02:25:45;19.98;;;6.70;;
25913;SDS011;13718;50.922;5.346;2023-07-31T02:28:11;19.65;;;7.22;;
25913;SDS011;13718;50.922;5.346;2023-07-31T02:30:36;23.85;;;7.28;;
25913;SDS011;13718;50.922;5.346;2023-07-31T02:33:02;17.70;;;6.45;;
25913;SDS011;13718;50.922;5.346;2023-07-31T02:35:28;17.17;;;7.03;;
25913;SDS011;13718;50.922;5.346;2023-07-31T02:37:54;24.70;;;7.30;;
25913;SDS011;13718;50.922;5.346;2023-07-31T02:40:19;24.17;;;7.35;;
25913;SDS011;13718;50.922;5.346;2023-07-31T02:42:45;25.58;;;6.97;;
25913;SDS011;13718;50.922;5.346;2023-07-31T02:45:10;23.13;;;6.95;;
25913;SDS011;13718;50.922;5.346;2023-07-31T02:47:36;22.90;;;7.53;;
25913;SDS011;13718;50.922;5.346;2023-07-31T02:50:02;20.40;;;7.00;;
25913;SDS011;13718;50.922;5.346;2023-07-31T02:52:28;24.23;;;7.60;;
25913;SDS011;13718;50.922;5.346;2023-07-31T02:54:54;20.05;;;7.50;;
25913;SDS011;13718;50.922;5.346;2023-07-31T02:57:19;24.60;;;7.75;;
25913;SDS011;13718;50.922;5.346;2023-07-31T02:59:45;17.88;;;7.80;;
25913;SDS011;13718;50.922;5.346;2023-07-31T03:02:10;22.02;;;7.25;;
25913;SDS011;13718;50.922;5.346;2023-07-31T03:04:38;23.98;;;8.07;;
25913;SDS011;13718;50.922;5.346;2023-07-31T03:07:03;21.30;;;7.50;;
25913;SDS011;13718;50.922;5.346;2023-07-31T03:09:29;19.88;;;7.82;;
25913;SDS011;13718;50.922;5.346;2023-07-31T03:11:55;18.92;;;7.20;;
25913;SDS011;13718;50.922;5.346;2023-07-31T03:14:20;25.13;;;7.88;;
25913;SDS011;13718;50.922;5.346;2023-07-31T03:16:46;18.02;;;7.55;;
25913;SDS011;13718;50.922;5.346;2023-07-31T03:19:12;22.40;;;8.43;;
25913;SDS011;13718;50.922;5.346;2023-07-31T03:21:38;23.20;;;8.48;;
25913;SDS011;13718;50.922;5.346;2023-07-31T03:24:03;19.20;;;7.63;;
25913;SDS011;13718;50.922;5.346;2023-07-31T03:26:30;24.13;;;8.55;;
25913;SDS011;13718;50.922;5.346;2023-07-31T03:28:56;16.65;;;7.38;;
25913;SDS011;13718;50.922;5.346;2023-07-31T03:31:22;23.85;;;8.05;;
25913;SDS011;13718;50.922;5.346;2023-07-31T03:33:47;17.80;;;7.68;;
25913;SDS011;13718;50.922;5.346;2023-07-31T03:36:13;20.23;;;8.05;;
25913;SDS011;13718;50.922;5.346;2023-07-31T03:38:38;17.83;;;7.75;;
25913;SDS011;13718;50.922;5.346;2023-07-31T03:41:04;19.30;;;7.40;;
25913;SDS011;13718;50.922;5.346;2023-07-31T03:43:31;16.35;;;7.95;;
25913;SDS011;13718;50.922;5.346;2023-07-31T03:45:58;17.52;;;7.60;;
25913;SDS011;13718;50.922;5.346;2023-07-31T03:48:27;24.30;;;7.70;;
25913;SDS011;13718;50.922;5.346;2023-07-31T03:50:53;17.80;;;7.40;;
25913;SDS011;13718;50.922;5.346;2023-07-31T03:53:19;15.77;;;7.10;;
25913;SDS011;13718;50.922;5.346;2023-07-31T03:55:44;17.48;;;7.32;;
25913;SDS011;13718;50.922;5.346;2023-07-31T03:58:10;17.33;;;7.53;;
25913;SDS011;13718;50.922;5.346;2023-07-31T04:00:35;18.98;;;7.15;;
25913;SDS011;13718;50.922;5.346;2023-07-31T04:03:01;17.98;;;7.28;;
25913;SDS011;13718;50.922;5.346;2023-07-31T04:05:27;12.95;;;6.38;;
25913;SDS011;13718;50.922;5.346;2023-07-31T04:07:52;16.02;;;6.60;;
25913;SDS011;13718;50.922;5.346;2023-07-31T04:10:18;13.30;;;7.07;;
25913;SDS011;13718;50.922;5.346;2023-07-31T04:12:43;15.90;;;6.40;;
25913;SDS011;13718;50.922;5.346;2023-07-31T04:15:09;19.38;;;7.00;;
25913;SDS011;13718;50.922;5.346;2023-07-31T04:17:35;17.30;;;6.35;;
25913;SDS011;13718;50.922;5.346;2023-07-31T04:20:00;18.65;;;6.60;;
25913;SDS011;13718;50.922;5.346;2023-07-31T04:22:26;15.43;;;6.22;;
25913;SDS011;13718;50.922;5.346;2023-07-31T04:24:52;16.42;;;6.57;;
25913;SDS011;13718;50.922;5.346;2023-07-31T04:27:17;14.77;;;6.28;;
25913;SDS011;13718;50.922;5.346;2023-07-31T04:29:43;14.93;;;6.32;;
25913;SDS011;13718;50.922;5.346;2023-07-31T04:32:10;15.93;;;5.85;;
25913;SDS011;13718;50.922;5.346;2023-07-31T04:34:36;11.85;;;5.57;;
25913;SDS011;13718;50.922;5.346;2023-07-31T04:37:02;18.13;;;5.63;;
25913;SDS011;13718;50.922;5.346;2023-07-31T04:39:28;12.57;;;5.35;;
25913;SDS011;13718;50.922;5.346;2023-07-31T04:41:53;13.35;;;5.88;;
25913;SDS011;13718;50.922;5.346;2023-07-31T04:44:19;13.27;;;6.00;;
25913;SDS011;13718;50.922;5.346;2023-07-31T04:46:44;11.43;;;5.82;;
25913;SDS011;13718;50.922;5.346;2023-07-31T04:49:10;17.38;;;5.80;;
25913;SDS011;13718;50.922;5.346;2023-07-31T04:51:36;15.90;;;6.32;;
25913;SDS011;13718;50.922;5.346;2023-07-31T04:54:02;21.08;;;5.70;;
25913;SDS011;13718;50.922;5.346;2023-07-31T04:56:28;14.82;;;6.25;;
25913;SDS011;13718;50.922;5.346;2023-07-31T04:58:53;17.05;;;6.80;;
25913;SDS011;13718;50.922;5.346;2023-07-31T05:01:19;17.15;;;6.57;;
25913;SDS011;13718;50.922;5.346;2023-07-31T05:03:45;16.25;;;6.93;;
25913;SDS011;13718;50.922;5.346;2023-07-31T05:06:11;21.90;;;7.82;;
25913;SDS011;13718;50.922;5.346;2023-07-31T05:08:37;16.90;;;6.80;;
25913;SDS011;13718;50.922;5.346;2023-07-31T05:11:03;18.08;;;7.05;;
25913;SDS011;13718;50.922;5.346;2023-07-31T05:13:28;21.95;;;7.10;;
25913;SDS011;13718;50.922;5.346;2023-07-31T05:15:54;14.75;;;6.80;;
25913;SDS011;13718;50.922;5.346;2023-07-31T05:18:19;18.90;;;7.53;;
25913;SDS011;13718;50.922;5.346;2023-07-31T05:20:45;19.73;;;7.65;;
25913;SDS011;13718;50.922;5.346;2023-07-31T05:23:10;17.98;;;7.00;;
25913;SDS011;13718;50.922;5.346;2023-07-31T05:25:36;14.68;;;6.72;;
25913;SDS011;13718;50.922;5.346;2023-07-31T05:28:01;18.52;;;6.57;;
25913;SDS011;13718;50.922;5.346;2023-07-31T05:30:29;20.50;;;6.68;;
25913;SDS011;13718;50.922;5.346;2023-07-31T05:32:55;14.35;;;6.35;;
25913;SDS011;13718;50.922;5.346;2023-07-31T05:35:20;16.63;;;6.30;;
25913;SDS011;13718;50.922;5.346;2023-07-31T05:37:46;23.05;;;6.57;;
25913;SDS011;13718;50.922;5.346;2023-07-31T05:40:11;16.27;;;5.85;;
25913;SDS011;13718;50.922;5.346;2023-07-31T05:42:37;19.77;;;7.25;;
25913;SDS011;13718;50.922;5.346;2023-07-31T05:45:03;13.63;;;6.75;;
25913;SDS011;13718;50.922;5.346;2023-07-31T05:47:30;13.65;;;6.10;;
25913;SDS011;13718;50.922;5.346;2023-07-31T05:49:56;17.65;;;6.38;;
25913;SDS011;13718;50.922;5.346;2023-07-31T05:52:21;18.48;;;6.72;;
25913;SDS011;13718;50.922;5.346;2023-07-31T05:54:47;12.93;;;5.93;;
25913;SDS011;13718;50.922;5.346;2023-07-31T05:57:12;20.15;;;6.63;;
25913;SDS011;13718;50.922;5.346;2023-07-31T05:59:38;19.05;;;5.85;;
25913;SDS011;13718;50.922;5.346;2023-07-31T06:02:03;14.77;;;6.38;;
25913;SDS011;13718;50.922;5.346;2023-07-31T06:04:29;15.55;;;6.40;;
25913;SDS011;13718;50.922;5.346;2023-07-31T06:06:55;14.68;;;6.05;;
25913;SDS011;13718;50.922;5.346;2023-07-31T06:09:21;13.73;;;6.07;;
25913;SDS011;13718;50.922;5.346;2023-07-31T06:11:47;16.45;;;6.00;;
25913;SDS011;13718;50.922;5.346;2023-07-31T06:14:12;14.98;;;5.60;;
25913;SDS011;13718;50.922;5.346;2023-07-31T06:16:38;15.25;;;5.20;;
25913;SDS011;13718;50.922;5.346;2023-07-31T06:19:03;13.88;;;5.43;;
25913;SDS011;13718;50.922;5.346;2023-07-31T06:21:29;15.00;;;5.15;;
25913;SDS011;13718;50.922;5.346;2023-07-31T06:23:56;12.80;;;5.18;;
25913;SDS011;13718;50.922;5.346;2023-07-31T06:26:21;14.38;;;5.40;;
25913;SDS011;13718;50.922;5.346;2023-07-31T06:28:47;17.60;;;5.82;;
25913;SDS011;13718;50.922;5.346;2023-07-31T06:31:12;13.40;;;5.63;;
25913;SDS011;13718;50.922;5.346;2023-07-31T06:33:38;13.90;;;4.90;;
25913;SDS011;13718;50.922;5.346;2023-07-31T06:36:03;17.60;;;6.50;;
25913;SDS011;13718;50.922;5.346;2023-07-31T06:38:29;14.55;;;5.53;;
25913;SDS011;13718;50.922;5.346;2023-07-31T06:40:55;15.70;;;5.50;;
25913;SDS011;13718;50.922;5.346;2023-07-31T06:43:20;18.60;;;6.22;;
25913;SDS011;13718;50.922;5.346;2023-07-31T06:45:46;14.35;;;5.30;;
25913;SDS011;13718;50.922;5.346;2023-07-31T06:48:13;18.33;;;6.03;;
25913;SDS011;13718;50.922;5.346;2023-07-31T06:50:39;15.75;;;6.45;;
25913;SDS011;13718;50.922;5.346;2023-07-31T06:53:04;18.17;;;6.07;;
25913;SDS011;13718;50.922;5.346;2023-07-31T06:55:30;16.08;;;6.10;;
25913;SDS011;13718;50.922;5.346;2023-07-31T06:57:56;20.25;;;6.88;;
25913;SDS011;13718;50.922;5.346;2023-07-31T07:00:22;16.48;;;7.07;;
25913;SDS011;13718;50.922;5.346;2023-07-31T07:02:48;18.35;;;7.00;;
25913;SDS011;13718;50.922;5.346;2023-07-31T07:05:15;15.68;;;6.20;;
25913;SDS011;13718;50.922;5.346;2023-07-31T07:07:41;17.67;;;6.32;;
25913;SDS011;13718;50.922;5.346;2023-07-31T07:10:08;14.85;;;5.93;;
25913;SDS011;13718;50.922;5.346;2023-07-31T07:12:34;17.75;;;6.18;;
25913;SDS011;13718;50.922;5.346;2023-07-31T07:15:01;15.55;;;6.72;;
25913;SDS011;13718;50.922;5.346;2023-07-31T07:17:27;17.80;;;6.47;;
25913;SDS011;13718;50.922;5.346;2023-07-31T07:19:58;14.23;;;6.35;;
25913;SDS011;13718;50.922;5.346;2023-07-31T07:22:24;18.15;;;6.57;;
25913;SDS011;13718;50.922;5.346;2023-07-31T07:24:50;18.17;;;7.47;;
25913;SDS011;13718;50.922;5.346;2023-07-31T07:27:16;22.05;;;6.45;;
25913;SDS011;13718;50.922;5.346;2023-07-31T07:29:42;18.52;;;6.40;;
25913;SDS011;13718;50.922;5.346;2023-07-31T07:32:07;17.65;;;7.82;;
25913;SDS011;13718;50.922;5.346;2023-07-31T07:34:33;17.23;;;6.20;;
25913;SDS011;13718;50.922;5.346;2023-07-31T07:36:58;16.63;;;7.03;;
25913;SDS011;13718;50.922;5.346;2023-07-31T07:39:24;11.25;;;5.85;;
25913;SDS011;13718;50.922;5.346;2023-07-31T07:41:50;21.55;;;6.07;;
25913;SDS011;13718;50.922;5.346;2023-07-31T07:44:15;14.25;;;5.95;;
25913;SDS011;13718;50.922;5.346;2023-07-31T07:46:41;15.43;;;5.97;;
25913;SDS011;13718;50.922;5.346;2023-07-31T07:49:07;17.02;;;6.43;;
25913;SDS011;13718;50.922;5.346;2023-07-31T07:51:32;13.45;;;5.80;;
25913;SDS011;13718;50.922;5.346;2023-07-31T07:53:58;14.30;;;6.30;;
25913;SDS011;13718;50.922;5.346;2023-07-31T07:56:25;14.43;;;5.80;;
25913;SDS011;13718;50.922;5.346;2023-07-31T07:58:51;15.75;;;5.63;;
25913;SDS011;13718;50.922;5.346;2023-07-31T08:01:17;16.60;;;6.10;;
25913;SDS011;13718;50.922;5.346;2023-07-31T08:03:43;14.55;;;5.82;;
25913;SDS011;13718;50.922;5.346;2023-07-31T08:06:09;16.08;;;5.80;;
25913;SDS011;13718;50.922;5.346;2023-07-31T08:08:35;13.40;;;5.70;;
25913;SDS011;13718;50.922;5.346;2023-07-31T08:11:01;13.38;;;5.47;;
25913;SDS011;13718;50.922;5.346;2023-07-31T08:13:27;13.48;;;6.28;;
25913;SDS011;13718;50.922;5.346;2023-07-31T08:15:52;15.10;;;5.80;;
25913;SDS011;13718;50.922;5.346;2023-07-31T08:18:18;11.98;;;5.28;;
25913;SDS011;13718;50.922;5.346;2023-07-31T08:20:44;17.20;;;6.38;;
25913;SDS011;13718;50.922;5.346;2023-07-31T08:23:09;16.02;;;6.63;;
25913;SDS011;13718;50.922;5.346;2023-07-31T08:25:35;16.33;;;6.53;;
25913;SDS011;13718;50.922;5.346;2023-07-31T08:28:01;11.50;;;5.70;;
25913;SDS011;13718;50.922;5.346;2023-07-31T08:30:27;15.70;;;5.97;;
25913;SDS011;13718;50.922;5.346;2023-07-31T08:32:53;13.73;;;5.22;;
25913;SDS011;13718;50.922;5.346;2023-07-31T08:35:18;13.18;;;5.40;;
25913;SDS011;13718;50.922;5.346;2023-07-31T08:37:44;18.23;;;6.30;;
25913;SDS011;13718;50.922;5.346;2023-07-31T08:40:09;13.73;;;6.45;;
25913;SDS011;13718;50.922;5.346;2023-07-31T08:42:47;12.93;;;5.72;;
25913;SDS011;13718;50.922;5.346;2023-07-31T08:45:14;15.35;;;5.68;;
25913;SDS011;13718;50.922;5.346;2023-07-31T08:47:45;17.60;;;5.88;;
25913;SDS011;13718;50.922;5.346;2023-07-31T08:50:12;17.15;;;5.65;;
25913;SDS011;13718;50.922;5.346;2023-07-31T08:52:38;14.55;;;5.47;;
25913;SDS011;13718;50.922;5.346;2023-07-31T08:55:05;13.05;;;5.13;;
25913;SDS011;13718;50.922;5.346;2023-07-31T08:57:31;16.95;;;5.43;;
25913;SDS011;13718;50.922;5.346;2023-07-31T08:59:59;16.05;;;5.60;;
25913;SDS011;13718;50.922;5.346;2023-07-31T09:02:26;12.73;;;5.40;;
25913;SDS011;13718;50.922;5.346;2023-07-31T09:05:02;16.30;;;5.28;;
25913;SDS011;13718;50.922;5.346;2023-07-31T09:07:30;13.63;;;5.30;;
25913;SDS011;13718;50.922;5.346;2023-07-31T09:09:58;12.20;;;4.78;;
25913;SDS011;13718;50.922;5.346;2023-07-31T09:12:25;11.32;;;4.72;;
25913;SDS011;13718;50.922;5.346;2023-07-31T09:14:50;11.70;;;4.95;;
25913;SDS011;13718;50.922;5.346;2023-07-31T09:17:16;12.98;;;4.65;;
25913;SDS011;13718;50.922;5.346;2023-07-31T09:20:13;11.23;;;4.85;;
25913;SDS011;13718;50.922;5.346;2023-07-31T09:22:38;12.13;;;4.97;;
25913;SDS011;13718;50.922;5.346;2023-07-31T09:25:17;11.43;;;4.40;;
25913;SDS011;13718;50.922;5.346;2023-07-31T09:30:19;8.30;;;3.55;;
25913;SDS011;13718;50.922;5.346;2023-07-31T09:32:46;9.13;;;3.65;;
25913;SDS011;13718;50.922;5.346;2023-07-31T09:35:22;10.20;;;3.20;;
25913;SDS011;13718;50.922;5.346;2023-07-31T09:37:53;5.57;;;2.92;;
25913;SDS011;13718;50.922;5.346;2023-07-31T09:42:56;5.88;;;2.63;;
25913;SDS011;13718;50.922;5.346;2023-07-31T09:45:23;6.93;;;2.38;;
25913;SDS011;13718;50.922;5.346;2023-07-31T09:47:49;5.55;;;2.63;;
25913;SDS011;13718;50.922;5.346;2023-07-31T09:50:15;7.75;;;2.60;;
25913;SDS011;13718;50.922;5.346;2023-07-31T09:52:43;4.60;;;2.20;;
25913;SDS011;13718;50.922;5.346;2023-07-31T09:55:09;5.75;;;2.40;;
25913;SDS011;13718;50.922;5.346;2023-07-31T09:57:39;10.13;;;2.53;;
25913;SDS011;13718;50.922;5.346;2023-07-31T10:00:09;5.05;;;2.33;;
25913;SDS011;13718;50.922;5.346;2023-07-31T10:02:40;4.47;;;2.45;;
25913;SDS011;13718;50.922;5.346;2023-07-31T10:05:09;4.88;;;2.08;;
25913;SDS011;13718;50.922;5.346;2023-07-31T10:07:37;5.35;;;2.40;;
25913;SDS011;13718;50.922;5.346;2023-07-31T10:10:04;4.25;;;2.15;;
25913;SDS011;13718;50.922;5.346;2023-07-31T10:12:33;5.28;;;2.45;;
25913;SDS011;13718;50.922;5.346;2023-07-31T10:14:59;7.68;;;2.28;;
25913;SDS011;13718;50.922;5.346;2023-07-31T10:17:25;6.88;;;2.65;;
25913;SDS011;13718;50.922;5.346;2023-07-31T10:19:51;7.55;;;3.20;;
25913;SDS011;13718;50.922;5.346;2023-07-31T10:22:19;8.15;;;2.42;;
25913;SDS011;13718;50.922;5.346;2023-07-31T10:24:46;5.35;;;2.60;;
25913;SDS011;13718;50.922;5.346;2023-07-31T10:27:13;5.63;;;2.55;;
25913;SDS011;13718;50.922;5.346;2023-07-31T10:29:39;8.25;;;3.25;;
25913;SDS011;13718;50.922;5.346;2023-07-31T10:32:06;7.57;;;3.10;;
25913;SDS011;13718;50.922;5.346;2023-07-31T10:34:35;11.60;;;3.80;;
25913;SDS011;13718;50.922;5.346;2023-07-31T10:39:57;8.18;;;4.13;;
25913;SDS011;13718;50.922;5.346;2023-07-31T10:42:38;6.25;;;4.00;;
25913;SDS011;13718;50.922;5.346;2023-07-31T10:47:45;11.43;;;4.43;;
25913;SDS011;13718;50.922;5.346;2023-07-31T10:52:48;10.25;;;4.88;;
25913;SDS011;13718;50.922;5.346;2023-07-31T10:55:16;9.95;;;3.97;;
25913;SDS011;13718;50.922;5.346;2023-07-31T10:58:05;9.93;;;4.40;;
25913;SDS011;13718;50.922;5.346;2023-07-31T11:00:39;11.75;;;4.70;;
25913;SDS011;13718;50.922;5.346;2023-07-31T11:03:10;10.68;;;4.38;;
25913;SDS011;13718;50.922;5.346;2023-07-31T11:05:47;10.98;;;4.88;;
25913;SDS011;13718;50.922;5.346;2023-07-31T11:08:16;12.07;;;4.60;;
25913;SDS011;13718;50.922;5.346;2023-07-31T11:10:46;14.45;;;4.75;;
25913;SDS011;13718;50.922;5.346;2023-07-31T11:13:12;12.45;;;4.68;;
25913;SDS011;13718;50.922;5.346;2023-07-31T11:15:39;12.07;;;4.75;;
25913;SDS011;13718;50.922;5.346;2023-07-31T11:18:04;12.30;;;4.97;;
25913;SDS011;13718;50.922;5.346;2023-07-31T11:20:32;9.20;;;4.07;;
25913;SDS011;13718;50.922;5.346;2023-07-31T11:23:01;9.23;;;4.78;;
25913;SDS011;13718;50.922;5.346;2023-07-31T11:25:29;11.68;;;4.45;;
25913;SDS011;13718;50.922;5.346;2023-07-31T11:27:56;15.25;;;5.60;;
25913;SDS011;13718;50.922;5.346;2023-07-31T11:30:23;12.15;;;4.32;;
25913;SDS011;13718;50.922;5.346;2023-07-31T11:32:49;11.80;;;4.50;;
25913;SDS011;13718;50.922;5.346;2023-07-31T11:35:16;9.65;;;4.15;;
25913;SDS011;13718;50.922;5.346;2023-07-31T11:37:42;8.35;;;4.18;;
25913;SDS011;13718;50.922;5.346;2023-07-31T11:40:09;10.82;;;4.55;;
25913;SDS011;13718;50.922;5.346;2023-07-31T11:42:35;10.57;;;4.30;;
25913;SDS011;13718;50.922;5.346;2023-07-31T11:45:02;8.32;;;4.38;;
25913;SDS011;13718;50.922;5.346;2023-07-31T11:47:28;11.68;;;4.68;;
25913;SDS011;13718;50.922;5.346;2023-07-31T11:49:55;9.82;;;4.07;;
25913;SDS011;13718;50.922;5.346;2023-07-31T11:52:21;9.77;;;4.50;;
25913;SDS011;13718;50.922;5.346;2023-07-31T11:54:48;10.80;;;4.57;;
25913;SDS011;13718;50.922;5.346;2023-07-31T11:57:14;12.38;;;4.00;;
25913;SDS011;13718;50.922;5.346;2023-07-31T11:59:41;12.25;;;4.65;;
25913;SDS011;13718;50.922;5.346;2023-07-31T12:02:07;11.40;;;4.65;;
25913;SDS011;13718;50.922;5.346;2023-07-31T12:04:33;10.80;;;4.70;;
25913;SDS011;13718;50.922;5.346;2023-07-31T12:07:02;8.38;;;4.47;;
25913;SDS011;13718;50.922;5.346;2023-07-31T12:09:28;11.85;;;4.72;;
25913;SDS011;13718;50.922;5.346;2023-07-31T12:11:54;9.65;;;4.28;;
25913;SDS011;13718;50.922;5.346;2023-07-31T12:14:29;9.88;;;4.53;;
25913;SDS011;13718;50.922;5.346;2023-07-31T12:16:55;11.45;;;4.50;;
25913;SDS011;13718;50.922;5.346;2023-07-31T12:19:24;12.77;;;4.68;;
25913;SDS011;13718;50.922;5.346;2023-07-31T12:21:54;9.32;;;4.10;;
25913;SDS011;13718;50.922;5.346;2023-07-31T12:24:25;9.40;;;4.55;;
25913;SDS011;13718;50.922;5.346;2023-07-31T12:26:51;10.27;;;4.60;;
25913;SDS011;13718;50.922;5.346;2023-07-31T12:29:17;11.65;;;4.95;;
25913;SDS011;13718;50.922;5.346;2023-07-31T12:31:43;9.90;;;4.28;;
25913;SDS011;13718;50.922;5.346;2023-07-31T12:34:18;9.60;;;4.70;;
25913;SDS011;13718;50.922;5.346;2023-07-31T12:36:46;11.77;;;4.38;;
25913;SDS011;13718;50.922;5.346;2023-07-31T12:39:13;13.00;;;4.60;;
25913;SDS011;13718;50.922;5.346;2023-07-31T12:41:39;9.75;;;4.43;;
25913;SDS011;13718;50.922;5.346;2023-07-31T12:44:05;14.18;;;4.47;;
25913;SDS011;13718;50.922;5.346;2023-07-31T12:46:31;8.68;;;4.53;;
25913;SDS011;13718;50.922;5.346;2023-07-31T12:48:56;10.25;;;4.30;;
25913;SDS011;13718;50.922;5.346;2023-07-31T12:51:22;8.10;;;3.95;;
25913;SDS011;13718;50.922;5.346;2023-07-31T12:53:48;10.10;;;3.97;;
25913;SDS011;13718;50.922;5.346;2023-07-31T12:56:14;11.85;;;4.22;;
25913;SDS011;13718;50.922;5.346;2023-07-31T12:58:39;9.15;;;4.20;;
25913;SDS011;13718;50.922;5.346;2023-07-31T13:01:05;10.35;;;4.68;;
25913;SDS011;13718;50.922;5.346;2023-07-31T13:03:31;8.00;;;4.43;;
25913;SDS011;13718;50.922;5.346;2023-07-31T13:05:57;9.43;;;4.75;;
25913;SDS011;13718;50.922;5.346;2023-07-31T13:08:22;10.27;;;4.20;;
25913;SDS011;13718;50.922;5.346;2023-07-31T13:10:48;15.25;;;4.60;;
25913;SDS011;13718;50.922;5.346;2023-07-31T13:13:13;11.05;;;4.93;;
25913;SDS011;13718;50.922;5.346;2023-07-31T13:15:39;9.23;;;4.65;;
25913;SDS011;13718;50.922;5.346;2023-07-31T13:18:04;13.65;;;5.88;;
25913;SDS011;13718;50.922;5.346;2023-07-31T13:20:30;12.75;;;5.43;;
25913;SDS011;13718;50.922;5.346;2023-07-31T13:22:56;12.50;;;5.20;;
25913;SDS011;13718;50.922;5.346;2023-07-31T13:25:21;11.13;;;5.18;;
25913;SDS011;13718;50.922;5.346;2023-07-31T13:27:47;14.43;;;5.13;;
25913;SDS011;13718;50.922;5.346;2023-07-31T13:30:12;13.77;;;5.53;;
25913;SDS011;13718;50.922;5.346;2023-07-31T13:32:38;12.85;;;5.43;;
25913;SDS011;13718;50.922;5.346;2023-07-31T13:35:06;14.50;;;5.15;;
25913;SDS011;13718;50.922;5.346;2023-07-31T13:37:33;12.82;;;5.30;;
25913;SDS011;13718;50.922;5.346;2023-07-31T13:39:59;15.07;;;5.63;;
25913;SDS011;13718;50.922;5.346;2023-07-31T13:42:25;13.57;;;5.05;;
25913;SDS011;13718;50.922;5.346;2023-07-31T13:44:50;13.45;;;5.43;;
25913;SDS011;13718;50.922;5.346;2023-07-31T13:47:17;11.77;;;5.43;;
25913;SDS011;13718;50.922;5.346;2023-07-31T13:49:42;14.35;;;5.07;;
25913;SDS011;13718;50.922;5.346;2023-07-31T13:52:08;12.82;;;5.28;;
25913;SDS011;13718;50.922;5.346;2023-07-31T13:54:34;12.30;;;5.13;;
25913;SDS011;13718;50.922;5.346;2023-07-31T13:57:00;12.02;;;4.40;;
25913;SDS011;13718;50.922;5.346;2023-07-31T13:59:25;13.05;;;4.95;;
25913;SDS011;13718;50.922;5.346;2023-07-31T14:01:51;11.35;;;4.95;;
25913;SDS011;13718;50.922;5.346;2023-07-31T14:04:17;11.55;;;4.85;;
25913;SDS011;13718;50.922;5.346;2023-07-31T14:06:43;12.65;;;4.90;;
25913;SDS011;13718;50.922;5.346;2023-07-31T14:09:09;10.35;;;5.07;;
25913;SDS011;13718;50.922;5.346;2023-07-31T14:11:34;12.25;;;4.88;;
25913;SDS011;13718;50.922;5.346;2023-07-31T14:14:00;10.18;;;4.63;;
25913;SDS011;13718;50.922;5.346;2023-07-31T14:16:27;11.90;;;4.50;;
25913;SDS011;13718;50.922;5.346;2023-07-31T14:18:53;9.15;;;4.10;;
25913;SDS011;13718;50.922;5.346;2023-07-31T14:21:18;11.13;;;4.90;;
25913;SDS011;13718;50.922;5.346;2023-07-31T14:23:44;8.73;;;4.03;;
25913;SDS011;13718;50.922;5.346;2023-07-31T14:26:10;8.77;;;4.43;;
25913;SDS011;13718;50.922;5.346;2023-07-31T14:28:36;12.75;;;4.15;;
25913;SDS011;13718;50.922;5.346;2023-07-31T14:31:01;8.18;;;3.88;;
25913;SDS011;13718;50.922;5.346;2023-07-31T14:33:27;10.15;;;4.05;;
25913;SDS011;13718;50.922;5.346;2023-07-31T14:35:53;13.70;;;4.15;;
25913;SDS011;13718;50.922;5.346;2023-07-31T14:38:19;9.63;;;3.50;;
25913;SDS011;13718;50.922;5.346;2023-07-31T14:40:44;10.27;;;3.53;;
25913;SDS011;13718;50.922;5.346;2023-07-31T14:43:10;9.13;;;3.47;;
25913;SDS011;13718;50.922;5.346;2023-07-31T14:45:36;10.77;;;2.92;;
25913;SDS011;13718;50.922;5.346;2023-07-31T14:48:01;6.72;;;3.35;;
25913;SDS011;13718;50.922;5.346;2023-07-31T14:50:27;7.50;;;3.10;;
25913;SDS011;13718;50.922;5.346;2023-07-31T14:52:53;7.47;;;3.50;;